Strona główna
METAR-TAF:

METAR-TAF

Lotnisko :

Washington, Indiana, Stany Zjednoczone

Szerokość geograficzna: 38-42-02N, Długość geograficzna: 087-07-47W, wysokość: 144 m

Aktualna obserwacja pogody

Raport powstał 16 minut temu, godzina 06:35 UTC
Cisza
Temperatura 14°C
Wilgotność 94%
Ciśnienie 1022 hPa
Widzialność: 16.1 km
bezchmurnie

METAR: KDCY 310635Z AUTO 00000KT 10SM CLR 14/13 A3017 RMK AO2 T01400133

czas: 02:51 (06:51 UTC)


TAF: brakujący

Obserwacja i prognoza pogody dla ponad 4000 lotnisk (raport METAR i TAF).

Dostępne stacje oznaczono żółtymi i czerwonymi punktami na mapie.

Najedź kursorem aby zobaczyć nazwę stacji.

Kliknij aby zobaczyć obserwacje i prognozy pogody.

Aby zmienić mapę: kliknij na zielony przycisk z czarnym krzyżykiem, aby powiększyć; na zielony przycisk z myślnikiem, aby pomniejszyć; na zielone strzałki, aby przejść do map sąsiednich.


METAR-TAF: